sensor_id;sensor_type;location;lat;lon;timestamp;P1;durP1;ratioP1;P2;durP2;ratioP2
20449;SDS011;10384;51.940;8.432;2023-07-08T00:02:10;4.33;;;1.80;;
20449;SDS011;10384;51.940;8.432;2023-07-08T00:04:37;3.17;;;1.80;;
20449;SDS011;10384;51.940;8.432;2023-07-08T00:07:03;2.93;;;2.00;;
20449;SDS011;10384;51.940;8.432;2023-07-08T00:09:29;3.20;;;1.70;;
20449;SDS011;10384;51.940;8.432;2023-07-08T00:11:55;2.10;;;1.60;;
20449;SDS011;10384;51.940;8.432;2023-07-08T00:14:22;3.33;;;1.70;;
20449;SDS011;10384;51.940;8.432;2023-07-08T00:16:48;2.70;;;1.67;;
20449;SDS011;10384;51.940;8.432;2023-07-08T00:19:17;1.90;;;1.60;;
20449;SDS011;10384;51.940;8.432;2023-07-08T00:21:44;2.70;;;1.63;;
20449;SDS011;10384;51.940;8.432;2023-07-08T00:24:10;4.00;;;2.20;;
20449;SDS011;10384;51.940;8.432;2023-07-08T00:26:37;2.37;;;1.80;;
20449;SDS011;10384;51.940;8.432;2023-07-08T00:29:07;4.83;;;2.00;;
20449;SDS011;10384;51.940;8.432;2023-07-08T00:31:34;2.47;;;1.63;;
20449;SDS011;10384;51.940;8.432;2023-07-08T00:34:00;5.10;;;2.80;;
20449;SDS011;10384;51.940;8.432;2023-07-08T00:36:28;3.80;;;2.00;;
20449;SDS011;10384;51.940;8.432;2023-07-08T00:38:55;2.47;;;1.80;;
20449;SDS011;10384;51.940;8.432;2023-07-08T00:41:22;3.47;;;1.83;;
20449;SDS011;10384;51.940;8.432;2023-07-08T00:43:50;2.73;;;1.90;;
20449;SDS011;10384;51.940;8.432;2023-07-08T00:48:43;3.30;;;2.03;;
20449;SDS011;10384;51.940;8.432;2023-07-08T00:51:10;3.10;;;2.10;;
20449;SDS011;10384;51.940;8.432;2023-07-08T00:53:37;4.83;;;1.90;;
20449;SDS011;10384;51.940;8.432;2023-07-08T00:56:06;5.07;;;1.87;;
20449;SDS011;10384;51.940;8.432;2023-07-08T00:58:34;3.17;;;2.20;;
20449;SDS011;10384;51.940;8.432;2023-07-08T01:01:02;3.33;;;1.70;;
20449;SDS011;10384;51.940;8.432;2023-07-08T01:03:29;2.80;;;1.90;;
20449;SDS011;10384;51.940;8.432;2023-07-08T01:05:55;2.50;;;1.83;;
20449;SDS011;10384;51.940;8.432;2023-07-08T01:08:24;2.33;;;1.90;;
20449;SDS011;10384;51.940;8.432;2023-07-08T01:10:54;1.90;;;1.73;;
20449;SDS011;10384;51.940;8.432;2023-07-08T01:13:22;3.73;;;1.90;;
20449;SDS011;10384;51.940;8.432;2023-07-08T01:15:48;3.23;;;2.00;;
20449;SDS011;10384;51.940;8.432;2023-07-08T01:18:15;3.33;;;2.20;;
20449;SDS011;10384;51.940;8.432;2023-07-08T01:20:41;2.73;;;1.87;;
20449;SDS011;10384;51.940;8.432;2023-07-08T01:23:09;2.73;;;1.90;;
20449;SDS011;10384;51.940;8.432;2023-07-08T01:25:35;4.93;;;2.00;;
20449;SDS011;10384;51.940;8.432;2023-07-08T01:28:02;2.13;;;1.80;;
20449;SDS011;10384;51.940;8.432;2023-07-08T01:30:28;3.87;;;2.10;;
20449;SDS011;10384;51.940;8.432;2023-07-08T01:32:55;2.90;;;1.90;;
20449;SDS011;10384;51.940;8.432;2023-07-08T01:35:22;3.33;;;1.97;;
20449;SDS011;10384;51.940;8.432;2023-07-08T01:37:52;3.97;;;2.00;;
20449;SDS011;10384;51.940;8.432;2023-07-08T01:42:45;3.43;;;2.50;;
20449;SDS011;10384;51.940;8.432;2023-07-08T01:45:12;3.67;;;2.10;;
20449;SDS011;10384;51.940;8.432;2023-07-08T01:47:38;2.47;;;1.90;;
20449;SDS011;10384;51.940;8.432;2023-07-08T01:50:05;2.60;;;2.10;;
20449;SDS011;10384;51.940;8.432;2023-07-08T01:52:32;3.57;;;2.10;;
20449;SDS011;10384;51.940;8.432;2023-07-08T01:54:58;4.57;;;1.90;;
20449;SDS011;10384;51.940;8.432;2023-07-08T01:57:24;4.57;;;2.60;;
20449;SDS011;10384;51.940;8.432;2023-07-08T01:59:50;2.67;;;2.20;;
20449;SDS011;10384;51.940;8.432;2023-07-08T02:02:16;2.27;;;1.83;;
20449;SDS011;10384;51.940;8.432;2023-07-08T02:04:42;4.47;;;2.17;;
20449;SDS011;10384;51.940;8.432;2023-07-08T02:07:08;3.73;;;2.07;;
20449;SDS011;10384;51.940;8.432;2023-07-08T02:09:34;2.77;;;2.23;;
20449;SDS011;10384;51.940;8.432;2023-07-08T02:11:59;5.00;;;2.40;;
20449;SDS011;10384;51.940;8.432;2023-07-08T02:14:25;3.73;;;2.20;;
20449;SDS011;10384;51.940;8.432;2023-07-08T02:16:51;5.03;;;2.37;;
20449;SDS011;10384;51.940;8.432;2023-07-08T02:19:18;3.33;;;2.17;;
20449;SDS011;10384;51.940;8.432;2023-07-08T02:21:44;4.87;;;2.10;;
20449;SDS011;10384;51.940;8.432;2023-07-08T02:24:10;3.37;;;1.90;;
20449;SDS011;10384;51.940;8.432;2023-07-08T02:26:36;3.63;;;2.00;;
20449;SDS011;10384;51.940;8.432;2023-07-08T02:29:02;4.03;;;2.30;;
20449;SDS011;10384;51.940;8.432;2023-07-08T02:31:28;3.90;;;1.93;;
20449;SDS011;10384;51.940;8.432;2023-07-08T02:33:54;3.00;;;2.40;;
20449;SDS011;10384;51.940;8.432;2023-07-08T02:36:20;3.77;;;2.20;;
20449;SDS011;10384;51.940;8.432;2023-07-08T02:38:46;4.20;;;2.30;;
20449;SDS011;10384;51.940;8.432;2023-07-08T02:41:12;3.53;;;2.13;;
20449;SDS011;10384;51.940;8.432;2023-07-08T02:43:38;4.27;;;2.47;;
20449;SDS011;10384;51.940;8.432;2023-07-08T02:46:04;5.17;;;2.57;;
20449;SDS011;10384;51.940;8.432;2023-07-08T02:48:30;2.57;;;2.17;;
20449;SDS011;10384;51.940;8.432;2023-07-08T02:50:59;3.10;;;2.00;;
20449;SDS011;10384;51.940;8.432;2023-07-08T02:53:25;5.27;;;2.40;;
20449;SDS011;10384;51.940;8.432;2023-07-08T02:55:51;3.13;;;1.93;;
20449;SDS011;10384;51.940;8.432;2023-07-08T02:58:17;3.57;;;2.30;;
20449;SDS011;10384;51.940;8.432;2023-07-08T03:00:43;3.17;;;2.03;;
20449;SDS011;10384;51.940;8.432;2023-07-08T03:03:09;2.47;;;1.80;;
20449;SDS011;10384;51.940;8.432;2023-07-08T03:05:36;3.87;;;2.13;;
20449;SDS011;10384;51.940;8.432;2023-07-08T03:08:02;4.03;;;2.30;;
20449;SDS011;10384;51.940;8.432;2023-07-08T03:10:27;2.30;;;2.10;;
20449;SDS011;10384;51.940;8.432;2023-07-08T03:12:53;3.33;;;2.30;;
20449;SDS011;10384;51.940;8.432;2023-07-08T03:15:19;5.50;;;2.60;;
20449;SDS011;10384;51.940;8.432;2023-07-08T03:17:45;4.77;;;3.10;;
20449;SDS011;10384;51.940;8.432;2023-07-08T03:20:11;4.70;;;2.20;;
20449;SDS011;10384;51.940;8.432;2023-07-08T03:22:37;4.17;;;2.27;;
20449;SDS011;10384;51.940;8.432;2023-07-08T03:25:03;4.10;;;2.00;;
20449;SDS011;10384;51.940;8.432;2023-07-08T03:27:29;4.10;;;2.20;;
20449;SDS011;10384;51.940;8.432;2023-07-08T03:29:55;3.37;;;2.57;;
20449;SDS011;10384;51.940;8.432;2023-07-08T03:32:21;2.23;;;1.83;;
20449;SDS011;10384;51.940;8.432;2023-07-08T03:34:48;3.30;;;2.07;;
20449;SDS011;10384;51.940;8.432;2023-07-08T03:37:14;3.10;;;2.30;;
20449;SDS011;10384;51.940;8.432;2023-07-08T03:39:40;5.40;;;2.10;;
20449;SDS011;10384;51.940;8.432;2023-07-08T03:42:06;3.57;;;2.10;;
20449;SDS011;10384;51.940;8.432;2023-07-08T03:44:32;5.53;;;2.40;;
20449;SDS011;10384;51.940;8.432;2023-07-08T03:46:58;2.77;;;1.97;;
20449;SDS011;10384;51.940;8.432;2023-07-08T03:49:24;5.20;;;2.03;;
20449;SDS011;10384;51.940;8.432;2023-07-08T03:51:51;2.83;;;2.30;;
20449;SDS011;10384;51.940;8.432;2023-07-08T03:54:18;3.13;;;2.20;;
20449;SDS011;10384;51.940;8.432;2023-07-08T03:56:45;3.80;;;2.10;;
20449;SDS011;10384;51.940;8.432;2023-07-08T03:59:11;4.13;;;2.20;;
20449;SDS011;10384;51.940;8.432;2023-07-08T04:01:37;3.27;;;2.40;;
20449;SDS011;10384;51.940;8.432;2023-07-08T04:04:06;5.57;;;2.87;;
20449;SDS011;10384;51.940;8.432;2023-07-08T04:06:32;2.50;;;2.00;;
20449;SDS011;10384;51.940;8.432;2023-07-08T04:08:59;2.93;;;2.30;;
20449;SDS011;10384;51.940;8.432;2023-07-08T04:11:25;3.30;;;1.87;;
20449;SDS011;10384;51.940;8.432;2023-07-08T04:13:51;4.07;;;2.43;;
20449;SDS011;10384;51.940;8.432;2023-07-08T04:18:46;2.80;;;2.00;;
20449;SDS011;10384;51.940;8.432;2023-07-08T04:21:12;3.83;;;2.10;;
20449;SDS011;10384;51.940;8.432;2023-07-08T04:23:38;3.47;;;2.50;;
20449;SDS011;10384;51.940;8.432;2023-07-08T04:26:04;5.27;;;2.43;;
20449;SDS011;10384;51.940;8.432;2023-07-08T04:28:30;3.90;;;2.20;;
20449;SDS011;10384;51.940;8.432;2023-07-08T04:30:56;3.17;;;2.30;;
20449;SDS011;10384;51.940;8.432;2023-07-08T04:33:22;3.07;;;2.13;;
20449;SDS011;10384;51.940;8.432;2023-07-08T04:35:48;3.93;;;2.07;;
20449;SDS011;10384;51.940;8.432;2023-07-08T04:38:18;4.03;;;2.60;;
20449;SDS011;10384;51.940;8.432;2023-07-08T04:40:46;6.83;;;2.30;;
20449;SDS011;10384;51.940;8.432;2023-07-08T04:43:12;3.73;;;2.30;;
20449;SDS011;10384;51.940;8.432;2023-07-08T04:45:39;6.53;;;2.50;;
20449;SDS011;10384;51.940;8.432;2023-07-08T04:48:07;4.23;;;2.13;;
20449;SDS011;10384;51.940;8.432;2023-07-08T04:50:39;3.10;;;2.20;;
20449;SDS011;10384;51.940;8.432;2023-07-08T04:53:05;3.43;;;2.20;;
20449;SDS011;10384;51.940;8.432;2023-07-08T04:55:31;4.07;;;2.07;;
20449;SDS011;10384;51.940;8.432;2023-07-08T04:57:57;3.30;;;2.20;;
20449;SDS011;10384;51.940;8.432;2023-07-08T05:00:23;4.17;;;2.33;;
20449;SDS011;10384;51.940;8.432;2023-07-08T05:02:49;2.60;;;1.80;;
20449;SDS011;10384;51.940;8.432;2023-07-08T05:05:15;3.73;;;2.47;;
20449;SDS011;10384;51.940;8.432;2023-07-08T05:07:41;3.37;;;2.23;;
20449;SDS011;10384;51.940;8.432;2023-07-08T05:10:07;4.70;;;2.50;;
20449;SDS011;10384;51.940;8.432;2023-07-08T05:12:33;5.03;;;2.63;;
20449;SDS011;10384;51.940;8.432;2023-07-08T05:14:59;7.27;;;2.77;;
20449;SDS011;10384;51.940;8.432;2023-07-08T05:17:26;4.90;;;2.60;;
20449;SDS011;10384;51.940;8.432;2023-07-08T05:19:53;4.60;;;2.50;;
20449;SDS011;10384;51.940;8.432;2023-07-08T05:22:19;3.50;;;2.30;;
20449;SDS011;10384;51.940;8.432;2023-07-08T05:24:50;7.33;;;2.47;;
20449;SDS011;10384;51.940;8.432;2023-07-08T05:27:17;3.57;;;2.03;;
20449;SDS011;10384;51.940;8.432;2023-07-08T05:29:43;6.27;;;2.93;;
20449;SDS011;10384;51.940;8.432;2023-07-08T05:32:09;6.60;;;3.37;;
20449;SDS011;10384;51.940;8.432;2023-07-08T05:34:35;5.10;;;2.67;;
20449;SDS011;10384;51.940;8.432;2023-07-08T05:37:01;5.80;;;2.60;;
20449;SDS011;10384;51.940;8.432;2023-07-08T05:39:29;4.73;;;2.70;;
20449;SDS011;10384;51.940;8.432;2023-07-08T05:41:55;4.70;;;2.77;;
20449;SDS011;10384;51.940;8.432;2023-07-08T05:44:21;3.83;;;2.93;;
20449;SDS011;10384;51.940;8.432;2023-07-08T05:46:47;3.87;;;2.40;;
20449;SDS011;10384;51.940;8.432;2023-07-08T05:49:13;2.73;;;2.30;;
20449;SDS011;10384;51.940;8.432;2023-07-08T05:51:39;4.13;;;2.20;;
20449;SDS011;10384;51.940;8.432;2023-07-08T05:54:05;3.87;;;2.50;;
20449;SDS011;10384;51.940;8.432;2023-07-08T05:56:31;6.20;;;2.47;;
20449;SDS011;10384;51.940;8.432;2023-07-08T05:58:58;4.77;;;2.80;;
20449;SDS011;10384;51.940;8.432;2023-07-08T06:01:23;3.73;;;2.50;;
20449;SDS011;10384;51.940;8.432;2023-07-08T06:03:49;5.67;;;2.40;;
20449;SDS011;10384;51.940;8.432;2023-07-08T06:06:16;3.47;;;2.17;;
20449;SDS011;10384;51.940;8.432;2023-07-08T06:08:42;3.17;;;2.20;;
20449;SDS011;10384;51.940;8.432;2023-07-08T06:11:08;4.57;;;2.30;;
20449;SDS011;10384;51.940;8.432;2023-07-08T06:13:34;3.53;;;2.20;;
20449;SDS011;10384;51.940;8.432;2023-07-08T06:16:00;3.37;;;2.30;;
20449;SDS011;10384;51.940;8.432;2023-07-08T06:18:26;3.40;;;2.20;;
20449;SDS011;10384;51.940;8.432;2023-07-08T06:20:52;2.70;;;2.10;;
20449;SDS011;10384;51.940;8.432;2023-07-08T06:23:19;3.77;;;2.50;;
20449;SDS011;10384;51.940;8.432;2023-07-08T06:25:45;4.43;;;2.40;;
20449;SDS011;10384;51.940;8.432;2023-07-08T06:28:11;3.73;;;2.30;;
20449;SDS011;10384;51.940;8.432;2023-07-08T06:30:37;4.10;;;2.33;;
20449;SDS011;10384;51.940;8.432;2023-07-08T06:33:03;3.87;;;2.17;;
20449;SDS011;10384;51.940;8.432;2023-07-08T06:35:29;3.47;;;2.20;;
20449;SDS011;10384;51.940;8.432;2023-07-08T06:37:55;3.93;;;2.10;;
20449;SDS011;10384;51.940;8.432;2023-07-08T06:40:21;3.90;;;2.60;;
20449;SDS011;10384;51.940;8.432;2023-07-08T06:42:47;5.33;;;2.30;;
20449;SDS011;10384;51.940;8.432;2023-07-08T06:45:13;5.13;;;2.83;;
20449;SDS011;10384;51.940;8.432;2023-07-08T06:47:39;6.37;;;2.20;;
20449;SDS011;10384;51.940;8.432;2023-07-08T06:50:05;3.43;;;2.43;;
20449;SDS011;10384;51.940;8.432;2023-07-08T06:52:31;3.60;;;2.30;;
20449;SDS011;10384;51.940;8.432;2023-07-08T06:55:00;3.50;;;1.90;;
20449;SDS011;10384;51.940;8.432;2023-07-08T06:57:26;4.63;;;2.87;;
20449;SDS011;10384;51.940;8.432;2023-07-08T06:59:53;3.23;;;2.30;;
20449;SDS011;10384;51.940;8.432;2023-07-08T07:02:19;3.40;;;2.20;;
20449;SDS011;10384;51.940;8.432;2023-07-08T07:04:45;4.00;;;2.00;;
20449;SDS011;10384;51.940;8.432;2023-07-08T07:07:11;3.13;;;2.10;;
20449;SDS011;10384;51.940;8.432;2023-07-08T07:09:37;2.97;;;2.23;;
20449;SDS011;10384;51.940;8.432;2023-07-08T07:12:05;4.10;;;2.60;;
20449;SDS011;10384;51.940;8.432;2023-07-08T07:14:31;4.90;;;2.17;;
20449;SDS011;10384;51.940;8.432;2023-07-08T07:16:57;4.47;;;2.20;;
20449;SDS011;10384;51.940;8.432;2023-07-08T07:19:23;2.80;;;2.13;;
20449;SDS011;10384;51.940;8.432;2023-07-08T07:21:49;6.17;;;2.80;;
20449;SDS011;10384;51.940;8.432;2023-07-08T07:24:15;4.60;;;2.43;;
20449;SDS011;10384;51.940;8.432;2023-07-08T07:26:41;3.30;;;2.40;;
20449;SDS011;10384;51.940;8.432;2023-07-08T07:29:07;4.33;;;2.50;;
20449;SDS011;10384;51.940;8.432;2023-07-08T07:31:33;2.50;;;2.17;;
20449;SDS011;10384;51.940;8.432;2023-07-08T07:33:59;4.00;;;2.20;;
20449;SDS011;10384;51.940;8.432;2023-07-08T07:36:26;3.77;;;2.60;;
20449;SDS011;10384;51.940;8.432;2023-07-08T07:38:53;4.63;;;2.30;;
20449;SDS011;10384;51.940;8.432;2023-07-08T07:41:19;3.90;;;2.17;;
20449;SDS011;10384;51.940;8.432;2023-07-08T07:43:45;3.73;;;2.20;;
20449;SDS011;10384;51.940;8.432;2023-07-08T07:46:11;5.67;;;2.60;;
20449;SDS011;10384;51.940;8.432;2023-07-08T07:48:38;4.30;;;2.20;;
20449;SDS011;10384;51.940;8.432;2023-07-08T07:51:04;5.67;;;2.40;;
20449;SDS011;10384;51.940;8.432;2023-07-08T07:53:30;5.03;;;2.10;;
20449;SDS011;10384;51.940;8.432;2023-07-08T07:56:00;3.63;;;2.47;;
20449;SDS011;10384;51.940;8.432;2023-07-08T07:58:26;4.53;;;2.70;;
20449;SDS011;10384;51.940;8.432;2023-07-08T08:00:52;3.70;;;2.30;;
20449;SDS011;10384;51.940;8.432;2023-07-08T08:03:19;2.57;;;2.00;;
20449;SDS011;10384;51.940;8.432;2023-07-08T08:05:45;5.27;;;2.50;;
20449;SDS011;10384;51.940;8.432;2023-07-08T08:08:11;4.73;;;2.67;;
20449;SDS011;10384;51.940;8.432;2023-07-08T08:10:37;5.30;;;2.50;;
20449;SDS011;10384;51.940;8.432;2023-07-08T08:13:03;4.60;;;2.50;;
20449;SDS011;10384;51.940;8.432;2023-07-08T08:15:29;5.60;;;2.27;;
20449;SDS011;10384;51.940;8.432;2023-07-08T08:17:55;3.37;;;2.30;;
20449;SDS011;10384;51.940;8.432;2023-07-08T08:20:22;4.37;;;2.47;;
20449;SDS011;10384;51.940;8.432;2023-07-08T08:22:48;3.20;;;2.50;;
20449;SDS011;10384;51.940;8.432;2023-07-08T08:25:15;4.43;;;2.37;;
20449;SDS011;10384;51.940;8.432;2023-07-08T08:27:41;3.30;;;2.20;;
20449;SDS011;10384;51.940;8.432;2023-07-08T08:30:07;5.33;;;2.43;;
20449;SDS011;10384;51.940;8.432;2023-07-08T08:32:33;3.23;;;2.27;;
20449;SDS011;10384;51.940;8.432;2023-07-08T08:34:59;4.23;;;2.60;;
20449;SDS011;10384;51.940;8.432;2023-07-08T08:37:25;3.33;;;2.27;;
20449;SDS011;10384;51.940;8.432;2023-07-08T08:39:51;5.53;;;2.67;;
20449;SDS011;10384;51.940;8.432;2023-07-08T08:42:24;7.23;;;2.50;;
20449;SDS011;10384;51.940;8.432;2023-07-08T08:44:51;3.53;;;2.43;;
20449;SDS011;10384;51.940;8.432;2023-07-08T08:47:22;5.37;;;2.30;;
20449;SDS011;10384;51.940;8.432;2023-07-08T08:49:54;3.50;;;2.43;;
20449;SDS011;10384;51.940;8.432;2023-07-08T08:52:23;4.60;;;2.17;;
20449;SDS011;10384;51.940;8.432;2023-07-08T08:54:49;6.87;;;2.50;;
20449;SDS011;10384;51.940;8.432;2023-07-08T09:02:30;4.30;;;2.53;;
20449;SDS011;10384;51.940;8.432;2023-07-08T09:05:01;4.63;;;2.90;;
20449;SDS011;10384;51.940;8.432;2023-07-08T09:07:27;3.93;;;2.40;;
20449;SDS011;10384;51.940;8.432;2023-07-08T09:10:04;9.07;;;3.23;;
20449;SDS011;10384;51.940;8.432;2023-07-08T09:12:34;4.40;;;2.80;;
20449;SDS011;10384;51.940;8.432;2023-07-08T09:15:07;3.93;;;2.70;;
20449;SDS011;10384;51.940;8.432;2023-07-08T09:17:36;4.03;;;2.60;;
20449;SDS011;10384;51.940;8.432;2023-07-08T09:22:34;5.03;;;2.80;;
20449;SDS011;10384;51.940;8.432;2023-07-08T09:27:30;4.13;;;2.57;;
20449;SDS011;10384;51.940;8.432;2023-07-08T09:29:56;4.90;;;3.10;;
20449;SDS011;10384;51.940;8.432;2023-07-08T09:32:24;5.13;;;3.10;;
20449;SDS011;10384;51.940;8.432;2023-07-08T09:34:52;4.60;;;3.00;;
20449;SDS011;10384;51.940;8.432;2023-07-08T09:37:26;8.30;;;2.90;;
20449;SDS011;10384;51.940;8.432;2023-07-08T09:39:52;5.57;;;3.37;;
20449;SDS011;10384;51.940;8.432;2023-07-08T09:42:18;3.73;;;2.50;;
20449;SDS011;10384;51.940;8.432;2023-07-08T09:44:45;5.70;;;3.20;;
20449;SDS011;10384;51.940;8.432;2023-07-08T09:47:22;4.90;;;2.80;;
20449;SDS011;10384;51.940;8.432;2023-07-08T09:49:48;5.20;;;3.07;;
20449;SDS011;10384;51.940;8.432;2023-07-08T09:52:14;5.50;;;3.00;;
20449;SDS011;10384;51.940;8.432;2023-07-08T09:54:40;4.00;;;3.03;;
20449;SDS011;10384;51.940;8.432;2023-07-08T09:59:45;4.80;;;3.00;;
20449;SDS011;10384;51.940;8.432;2023-07-08T10:02:32;5.10;;;3.20;;
20449;SDS011;10384;51.940;8.432;2023-07-08T10:05:05;4.77;;;2.80;;
20449;SDS011;10384;51.940;8.432;2023-07-08T10:07:36;5.27;;;3.27;;
20449;SDS011;10384;51.940;8.432;2023-07-08T10:10:04;6.70;;;3.20;;
20449;SDS011;10384;51.940;8.432;2023-07-08T10:12:32;6.30;;;3.40;;
20449;SDS011;10384;51.940;8.432;2023-07-08T10:15:05;4.83;;;3.33;;
20449;SDS011;10384;51.940;8.432;2023-07-08T10:17:32;5.20;;;2.80;;
20449;SDS011;10384;51.940;8.432;2023-07-08T10:19:59;5.83;;;3.23;;
20449;SDS011;10384;51.940;8.432;2023-07-08T10:27:57;5.93;;;3.40;;
20449;SDS011;10384;51.940;8.432;2023-07-08T10:30:31;6.37;;;3.00;;
20449;SDS011;10384;51.940;8.432;2023-07-08T10:35:49;5.27;;;3.30;;
20449;SDS011;10384;51.940;8.432;2023-07-08T10:38:29;4.73;;;3.07;;
20449;SDS011;10384;51.940;8.432;2023-07-08T10:43:48;5.20;;;3.00;;
20449;SDS011;10384;51.940;8.432;2023-07-08T10:48:59;4.63;;;3.10;;
20449;SDS011;10384;51.940;8.432;2023-07-08T10:51:32;4.40;;;3.23;;
20449;SDS011;10384;51.940;8.432;2023-07-08T11:01:34;5.00;;;3.20;;
20449;SDS011;10384;51.940;8.432;2023-07-08T11:06:47;5.90;;;3.60;;
20449;SDS011;10384;51.940;8.432;2023-07-08T11:09:20;6.20;;;3.43;;
20449;SDS011;10384;51.940;8.432;2023-07-08T11:11:51;5.23;;;3.20;;
20449;SDS011;10384;51.940;8.432;2023-07-08T11:14:27;4.73;;;3.20;;
20449;SDS011;10384;51.940;8.432;2023-07-08T11:17:02;5.37;;;3.30;;
20449;SDS011;10384;51.940;8.432;2023-07-08T11:19:31;5.63;;;3.70;;
20449;SDS011;10384;51.940;8.432;2023-07-08T11:22:00;5.27;;;3.03;;
20449;SDS011;10384;51.940;8.432;2023-07-08T11:24:45;5.57;;;3.20;;
20449;SDS011;10384;51.940;8.432;2023-07-08T11:27:23;5.53;;;3.43;;
20449;SDS011;10384;51.940;8.432;2023-07-08T11:29:54;6.17;;;3.50;;
20449;SDS011;10384;51.940;8.432;2023-07-08T11:32:21;6.10;;;3.50;;
20449;SDS011;10384;51.940;8.432;2023-07-08T11:34:49;5.60;;;3.43;;
20449;SDS011;10384;51.940;8.432;2023-07-08T11:37:15;4.43;;;3.20;;
20449;SDS011;10384;51.940;8.432;2023-07-08T11:39:44;5.90;;;3.63;;
20449;SDS011;10384;51.940;8.432;2023-07-08T11:44:43;5.77;;;3.50;;
20449;SDS011;10384;51.940;8.432;2023-07-08T11:47:54;6.00;;;3.73;;
20449;SDS011;10384;51.940;8.432;2023-07-08T11:50:01;7.23;;;3.40;;
20449;SDS011;10384;51.940;8.432;2023-07-08T11:52:28;4.83;;;3.40;;
20449;SDS011;10384;51.940;8.432;2023-07-08T11:54:56;4.93;;;3.40;;
20449;SDS011;10384;51.940;8.432;2023-07-08T11:57:24;5.70;;;3.73;;
20449;SDS011;10384;51.940;8.432;2023-07-08T12:00:06;6.80;;;3.40;;
20449;SDS011;10384;51.940;8.432;2023-07-08T12:02:49;7.27;;;3.60;;
20449;SDS011;10384;51.940;8.432;2023-07-08T12:05:15;5.13;;;3.50;;
20449;SDS011;10384;51.940;8.432;2023-07-08T12:07:42;5.90;;;3.37;;
20449;SDS011;10384;51.940;8.432;2023-07-08T12:10:11;6.03;;;3.80;;
20449;SDS011;10384;51.940;8.432;2023-07-08T12:12:40;7.97;;;3.50;;
20449;SDS011;10384;51.940;8.432;2023-07-08T12:15:23;8.33;;;4.00;;
20449;SDS011;10384;51.940;8.432;2023-07-08T12:17:50;7.07;;;3.70;;
20449;SDS011;10384;51.940;8.432;2023-07-08T12:20:21;6.80;;;3.57;;
20449;SDS011;10384;51.940;8.432;2023-07-08T12:22:48;5.23;;;3.30;;
20449;SDS011;10384;51.940;8.432;2023-07-08T12:25:16;4.80;;;3.23;;
20449;SDS011;10384;51.940;8.432;2023-07-08T12:27:43;6.23;;;3.70;;
20449;SDS011;10384;51.940;8.432;2023-07-08T12:30:10;7.13;;;3.40;;
20449;SDS011;10384;51.940;8.432;2023-07-08T12:32:36;5.43;;;3.60;;
20449;SDS011;10384;51.940;8.432;2023-07-08T12:35:02;4.83;;;3.57;;
20449;SDS011;10384;51.940;8.432;2023-07-08T12:37:31;5.73;;;3.60;;
20449;SDS011;10384;51.940;8.432;2023-07-08T12:39:57;7.23;;;4.00;;
20449;SDS011;10384;51.940;8.432;2023-07-08T12:42:29;4.73;;;3.67;;
20449;SDS011;10384;51.940;8.432;2023-07-08T12:44:55;5.70;;;3.60;;
20449;SDS011;10384;51.940;8.432;2023-07-08T12:47:21;5.60;;;3.47;;
20449;SDS011;10384;51.940;8.432;2023-07-08T12:49:48;6.43;;;3.70;;
20449;SDS011;10384;51.940;8.432;2023-07-08T12:52:23;5.57;;;3.33;;
20449;SDS011;10384;51.940;8.432;2023-07-08T12:54:49;6.30;;;3.50;;
20449;SDS011;10384;51.940;8.432;2023-07-08T12:57:15;5.07;;;3.93;;
20449;SDS011;10384;51.940;8.432;2023-07-08T12:59:42;7.70;;;3.83;;
20449;SDS011;10384;51.940;8.432;2023-07-08T13:02:12;4.87;;;3.13;;
20449;SDS011;10384;51.940;8.432;2023-07-08T13:04:40;5.07;;;3.67;;
20449;SDS011;10384;51.940;8.432;2023-07-08T13:07:07;5.47;;;3.30;;
20449;SDS011;10384;51.940;8.432;2023-07-08T13:09:39;6.43;;;3.57;;
20449;SDS011;10384;51.940;8.432;2023-07-08T13:12:13;8.17;;;3.97;;
20449;SDS011;10384;51.940;8.432;2023-07-08T13:14:40;5.17;;;3.60;;
20449;SDS011;10384;51.940;8.432;2023-07-08T13:17:10;4.37;;;3.03;;
20449;SDS011;10384;51.940;8.432;2023-07-08T13:19:37;6.63;;;4.03;;
20449;SDS011;10384;51.940;8.432;2023-07-08T13:22:03;6.83;;;4.20;;
20449;SDS011;10384;51.940;8.432;2023-07-08T13:24:30;5.13;;;3.40;;
20449;SDS011;10384;51.940;8.432;2023-07-08T13:26:57;5.60;;;3.50;;
20449;SDS011;10384;51.940;8.432;2023-07-08T13:29:23;4.83;;;3.40;;
20449;SDS011;10384;51.940;8.432;2023-07-08T13:31:55;5.37;;;3.70;;
20449;SDS011;10384;51.940;8.432;2023-07-08T13:34:23;5.13;;;3.47;;
20449;SDS011;10384;51.940;8.432;2023-07-08T13:36:50;5.63;;;4.00;;
20449;SDS011;10384;51.940;8.432;2023-07-08T13:39:22;6.27;;;3.87;;
20449;SDS011;10384;51.940;8.432;2023-07-08T13:41:49;6.70;;;4.03;;
20449;SDS011;10384;51.940;8.432;2023-07-08T13:44:15;8.37;;;4.07;;
20449;SDS011;10384;51.940;8.432;2023-07-08T13:46:51;7.23;;;4.40;;
20449;SDS011;10384;51.940;8.432;2023-07-08T13:51:46;5.60;;;3.70;;
20449;SDS011;10384;51.940;8.432;2023-07-08T13:54:19;6.90;;;3.80;;
20449;SDS011;10384;51.940;8.432;2023-07-08T13:56:46;7.03;;;3.97;;
20449;SDS011;10384;51.940;8.432;2023-07-08T13:59:15;5.57;;;3.87;;
20449;SDS011;10384;51.940;8.432;2023-07-08T14:01:42;6.17;;;3.90;;
20449;SDS011;10384;51.940;8.432;2023-07-08T14:04:10;5.37;;;3.57;;
20449;SDS011;10384;51.940;8.432;2023-07-08T14:06:37;6.67;;;3.60;;
20449;SDS011;10384;51.940;8.432;2023-07-08T14:09:10;6.73;;;3.90;;
20449;SDS011;10384;51.940;8.432;2023-07-08T14:11:37;5.27;;;3.83;;
20449;SDS011;10384;51.940;8.432;2023-07-08T14:14:03;6.43;;;3.67;;
20449;SDS011;10384;51.940;8.432;2023-07-08T14:16:29;7.87;;;4.17;;
20449;SDS011;10384;51.940;8.432;2023-07-08T14:18:59;6.47;;;3.70;;
20449;SDS011;10384;51.940;8.432;2023-07-08T14:21:28;6.93;;;4.30;;
20449;SDS011;10384;51.940;8.432;2023-07-08T14:23:54;7.13;;;4.07;;
20449;SDS011;10384;51.940;8.432;2023-07-08T14:26:20;5.83;;;3.80;;
20449;SDS011;10384;51.940;8.432;2023-07-08T14:28:46;6.40;;;4.37;;
20449;SDS011;10384;51.940;8.432;2023-07-08T14:31:12;6.77;;;4.13;;
20449;SDS011;10384;51.940;8.432;2023-07-08T14:33:39;5.07;;;3.40;;
20449;SDS011;10384;51.940;8.432;2023-07-08T14:36:09;7.17;;;4.43;;
20449;SDS011;10384;51.940;8.432;2023-07-08T14:38:35;6.37;;;3.70;;
20449;SDS011;10384;51.940;8.432;2023-07-08T14:41:01;6.13;;;4.13;;
20449;SDS011;10384;51.940;8.432;2023-07-08T14:43:28;6.80;;;4.13;;
20449;SDS011;10384;51.940;8.432;2023-07-08T14:45:56;5.37;;;3.90;;
20449;SDS011;10384;51.940;8.432;2023-07-08T14:48:23;4.90;;;3.93;;
20449;SDS011;10384;51.940;8.432;2023-07-08T14:50:49;6.73;;;4.40;;
20449;SDS011;10384;51.940;8.432;2023-07-08T14:53:16;7.50;;;3.83;;
20449;SDS011;10384;51.940;8.432;2023-07-08T14:55:43;7.57;;;4.03;;
20449;SDS011;10384;51.940;8.432;2023-07-08T14:58:15;4.83;;;3.77;;
20449;SDS011;10384;51.940;8.432;2023-07-08T15:00:43;6.23;;;4.10;;
20449;SDS011;10384;51.940;8.432;2023-07-08T15:03:09;5.47;;;3.93;;
20449;SDS011;10384;51.940;8.432;2023-07-08T15:05:35;6.40;;;3.87;;
20449;SDS011;10384;51.940;8.432;2023-07-08T15:08:01;6.10;;;3.87;;
20449;SDS011;10384;51.940;8.432;2023-07-08T15:10:28;6.33;;;3.97;;
20449;SDS011;10384;51.940;8.432;2023-07-08T15:12:56;7.17;;;4.00;;
20449;SDS011;10384;51.940;8.432;2023-07-08T15:15:25;6.07;;;3.70;;
20449;SDS011;10384;51.940;8.432;2023-07-08T15:17:52;5.73;;;4.37;;
20449;SDS011;10384;51.940;8.432;2023-07-08T15:20:18;5.03;;;3.63;;
20449;SDS011;10384;51.940;8.432;2023-07-08T15:22:44;8.70;;;4.33;;
20449;SDS011;10384;51.940;8.432;2023-07-08T15:25:13;5.83;;;3.70;;
20449;SDS011;10384;51.940;8.432;2023-07-08T15:27:40;8.53;;;4.50;;
20449;SDS011;10384;51.940;8.432;2023-07-08T15:30:17;5.47;;;3.77;;
20449;SDS011;10384;51.940;8.432;2023-07-08T15:32:44;6.97;;;4.00;;
20449;SDS011;10384;51.940;8.432;2023-07-08T15:35:14;4.67;;;3.30;;
20449;SDS011;10384;51.940;8.432;2023-07-08T15:37:41;6.93;;;3.90;;
20449;SDS011;10384;51.940;8.432;2023-07-08T15:40:07;7.20;;;3.97;;